sensor_id;sensor_type;location;lat;lon;timestamp;temperature;humidity
2897;DHT22;1458;49.728;9.228;2023-07-22T00:00:36;15.80;97.10
2897;DHT22;1458;49.728;9.228;2023-07-22T00:03:03;15.90;97.00
2897;DHT22;1458;49.728;9.228;2023-07-22T00:05:32;15.90;96.80
2897;DHT22;1458;49.728;9.228;2023-07-22T00:08:00;16.00;97.10
2897;DHT22;1458;49.728;9.228;2023-07-22T00:10:27;16.00;96.50
2897;DHT22;1458;49.728;9.228;2023-07-22T00:12:55;16.00;96.00
2897;DHT22;1458;49.728;9.228;2023-07-22T00:15:22;16.10;96.40
2897;DHT22;1458;49.728;9.228;2023-07-22T00:17:51;16.20;96.10
2897;DHT22;1458;49.728;9.228;2023-07-22T00:20:18;16.10;96.10
2897;DHT22;1458;49.728;9.228;2023-07-22T00:22:47;16.10;95.50
2897;DHT22;1458;49.728;9.228;2023-07-22T00:25:16;16.00;95.80
2897;DHT22;1458;49.728;9.228;2023-07-22T00:27:43;15.90;96.50
2897;DHT22;1458;49.728;9.228;2023-07-22T00:30:13;15.90;97.00
2897;DHT22;1458;49.728;9.228;2023-07-22T00:32:40;15.90;97.70
2897;DHT22;1458;49.728;9.228;2023-07-22T00:35:09;15.90;97.50
2897;DHT22;1458;49.728;9.228;2023-07-22T00:37:36;16.00;96.40
2897;DHT22;1458;49.728;9.228;2023-07-22T00:40:06;15.90;96.60
2897;DHT22;1458;49.728;9.228;2023-07-22T00:42:37;15.90;97.20
2897;DHT22;1458;49.728;9.228;2023-07-22T00:45:06;15.80;98.10
2897;DHT22;1458;49.728;9.228;2023-07-22T00:47:34;15.80;97.50
2897;DHT22;1458;49.728;9.228;2023-07-22T00:50:03;16.00;98.40
2897;DHT22;1458;49.728;9.228;2023-07-22T00:52:32;16.00;98.90
2897;DHT22;1458;49.728;9.228;2023-07-22T00:55:00;16.00;98.80
2897;DHT22;1458;49.728;9.228;2023-07-22T00:57:29;16.10;98.50
2897;DHT22;1458;49.728;9.228;2023-07-22T00:59:57;16.10;98.60
2897;DHT22;1458;49.728;9.228;2023-07-22T01:02:24;16.10;98.10
2897;DHT22;1458;49.728;9.228;2023-07-22T01:04:52;16.20;97.90
2897;DHT22;1458;49.728;9.228;2023-07-22T01:07:19;16.20;97.80
2897;DHT22;1458;49.728;9.228;2023-07-22T01:09:47;16.30;97.50
2897;DHT22;1458;49.728;9.228;2023-07-22T01:12:14;16.20;97.80
2897;DHT22;1458;49.728;9.228;2023-07-22T01:14:44;16.30;97.20
2897;DHT22;1458;49.728;9.228;2023-07-22T01:17:12;16.20;97.50
2897;DHT22;1458;49.728;9.228;2023-07-22T01:19:40;16.10;96.90
2897;DHT22;1458;49.728;9.228;2023-07-22T01:22:08;16.10;97.10
2897;DHT22;1458;49.728;9.228;2023-07-22T01:24:38;16.10;97.50
2897;DHT22;1458;49.728;9.228;2023-07-22T01:27:06;16.10;97.60
2897;DHT22;1458;49.728;9.228;2023-07-22T01:29:36;16.10;97.50
2897;DHT22;1458;49.728;9.228;2023-07-22T01:32:04;16.20;97.00
2897;DHT22;1458;49.728;9.228;2023-07-22T01:34:32;16.10;97.00
2897;DHT22;1458;49.728;9.228;2023-07-22T01:36:59;16.10;97.00
2897;DHT22;1458;49.728;9.228;2023-07-22T01:39:27;16.10;96.20
2897;DHT22;1458;49.728;9.228;2023-07-22T01:41:56;16.10;96.00
2897;DHT22;1458;49.728;9.228;2023-07-22T01:44:23;16.00;96.40
2897;DHT22;1458;49.728;9.228;2023-07-22T01:46:51;15.90;96.60
2897;DHT22;1458;49.728;9.228;2023-07-22T01:49:18;15.90;96.50
2897;DHT22;1458;49.728;9.228;2023-07-22T01:51:46;15.80;96.90
2897;DHT22;1458;49.728;9.228;2023-07-22T01:54:13;15.90;96.40
2897;DHT22;1458;49.728;9.228;2023-07-22T01:56:41;15.80;96.80
2897;DHT22;1458;49.728;9.228;2023-07-22T01:59:09;15.80;97.10
2897;DHT22;1458;49.728;9.228;2023-07-22T02:01:37;15.90;97.10
2897;DHT22;1458;49.728;9.228;2023-07-22T02:04:04;16.00;97.30
2897;DHT22;1458;49.728;9.228;2023-07-22T02:06:32;16.00;97.20
2897;DHT22;1458;49.728;9.228;2023-07-22T02:09:00;15.90;95.90
2897;DHT22;1458;49.728;9.228;2023-07-22T02:11:34;16.00;96.00
2897;DHT22;1458;49.728;9.228;2023-07-22T02:14:02;16.00;95.40
2897;DHT22;1458;49.728;9.228;2023-07-22T02:16:34;16.00;94.90
2897;DHT22;1458;49.728;9.228;2023-07-22T02:19:02;16.10;94.90
2897;DHT22;1458;49.728;9.228;2023-07-22T02:21:35;16.10;94.10
2897;DHT22;1458;49.728;9.228;2023-07-22T02:24:04;16.00;94.20
2897;DHT22;1458;49.728;9.228;2023-07-22T02:26:31;16.00;94.10
2897;DHT22;1458;49.728;9.228;2023-07-22T02:28:59;16.00;94.40
2897;DHT22;1458;49.728;9.228;2023-07-22T02:31:26;16.00;93.90
2897;DHT22;1458;49.728;9.228;2023-07-22T02:33:55;16.00;93.70
2897;DHT22;1458;49.728;9.228;2023-07-22T02:36:23;16.00;94.00
2897;DHT22;1458;49.728;9.228;2023-07-22T02:38:50;15.90;93.90
2897;DHT22;1458;49.728;9.228;2023-07-22T02:41:18;15.80;94.30
2897;DHT22;1458;49.728;9.228;2023-07-22T02:43:47;15.80;94.60
2897;DHT22;1458;49.728;9.228;2023-07-22T02:46:14;15.80;94.70
2897;DHT22;1458;49.728;9.228;2023-07-22T02:48:42;15.80;95.10
2897;DHT22;1458;49.728;9.228;2023-07-22T02:51:11;15.80;95.80
2897;DHT22;1458;49.728;9.228;2023-07-22T02:53:38;15.80;95.90
2897;DHT22;1458;49.728;9.228;2023-07-22T02:56:07;15.80;96.00
2897;DHT22;1458;49.728;9.228;2023-07-22T02:58:35;15.80;95.90
2897;DHT22;1458;49.728;9.228;2023-07-22T03:01:03;15.70;96.10
2897;DHT22;1458;49.728;9.228;2023-07-22T03:03:32;15.70;96.70
2897;DHT22;1458;49.728;9.228;2023-07-22T03:06:00;15.70;96.70
2897;DHT22;1458;49.728;9.228;2023-07-22T03:08:29;15.70;96.40
2897;DHT22;1458;49.728;9.228;2023-07-22T03:10:56;15.70;96.20
2897;DHT22;1458;49.728;9.228;2023-07-22T03:13:24;15.60;95.90
2897;DHT22;1458;49.728;9.228;2023-07-22T03:15:55;15.60;95.50
2897;DHT22;1458;49.728;9.228;2023-07-22T03:18:23;15.50;96.00
2897;DHT22;1458;49.728;9.228;2023-07-22T03:20:50;15.40;96.80
2897;DHT22;1458;49.728;9.228;2023-07-22T03:23:18;15.50;96.90
2897;DHT22;1458;49.728;9.228;2023-07-22T03:25:48;15.60;97.00
2897;DHT22;1458;49.728;9.228;2023-07-22T03:28:15;15.60;97.40
2897;DHT22;1458;49.728;9.228;2023-07-22T03:30:43;15.50;97.80
2897;DHT22;1458;49.728;9.228;2023-07-22T03:33:10;15.60;97.50
2897;DHT22;1458;49.728;9.228;2023-07-22T03:35:38;15.60;98.00
2897;DHT22;1458;49.728;9.228;2023-07-22T03:38:05;15.70;97.90
2897;DHT22;1458;49.728;9.228;2023-07-22T03:40:33;15.60;98.00
2897;DHT22;1458;49.728;9.228;2023-07-22T03:43:02;15.70;97.10
2897;DHT22;1458;49.728;9.228;2023-07-22T03:45:30;15.70;97.50
2897;DHT22;1458;49.728;9.228;2023-07-22T03:47:59;15.70;97.20
2897;DHT22;1458;49.728;9.228;2023-07-22T03:50:27;15.80;97.40
2897;DHT22;1458;49.728;9.228;2023-07-22T03:52:55;15.80;96.60
2897;DHT22;1458;49.728;9.228;2023-07-22T03:55:22;15.90;96.10
2897;DHT22;1458;49.728;9.228;2023-07-22T03:57:50;15.80;96.30
2897;DHT22;1458;49.728;9.228;2023-07-22T04:00:20;15.80;97.00
2897;DHT22;1458;49.728;9.228;2023-07-22T04:02:48;15.80;96.90
2897;DHT22;1458;49.728;9.228;2023-07-22T04:05:15;15.80;98.00
2897;DHT22;1458;49.728;9.228;2023-07-22T04:07:44;15.90;96.90
2897;DHT22;1458;49.728;9.228;2023-07-22T04:10:12;16.00;96.30
2897;DHT22;1458;49.728;9.228;2023-07-22T04:12:39;16.00;95.80
2897;DHT22;1458;49.728;9.228;2023-07-22T04:15:07;16.10;95.30
2897;DHT22;1458;49.728;9.228;2023-07-22T04:17:36;16.00;95.50
2897;DHT22;1458;49.728;9.228;2023-07-22T04:20:05;16.00;95.20
2897;DHT22;1458;49.728;9.228;2023-07-22T04:22:34;16.00;94.90
2897;DHT22;1458;49.728;9.228;2023-07-22T04:25:02;16.00;95.00
2897;DHT22;1458;49.728;9.228;2023-07-22T04:27:30;16.10;91.90
2897;DHT22;1458;49.728;9.228;2023-07-22T04:29:58;16.20;91.90
2897;DHT22;1458;49.728;9.228;2023-07-22T04:32:25;16.20;91.70
2897;DHT22;1458;49.728;9.228;2023-07-22T04:34:54;16.30;91.90
2897;DHT22;1458;49.728;9.228;2023-07-22T04:37:21;16.30;91.70
2897;DHT22;1458;49.728;9.228;2023-07-22T04:39:49;16.30;91.70
2897;DHT22;1458;49.728;9.228;2023-07-22T04:42:16;16.20;92.80
2897;DHT22;1458;49.728;9.228;2023-07-22T04:44:44;16.20;93.10
2897;DHT22;1458;49.728;9.228;2023-07-22T04:47:11;16.20;93.40
2897;DHT22;1458;49.728;9.228;2023-07-22T04:49:39;16.10;93.60
2897;DHT22;1458;49.728;9.228;2023-07-22T04:52:08;16.00;94.10
2897;DHT22;1458;49.728;9.228;2023-07-22T04:54:35;16.10;94.40
2897;DHT22;1458;49.728;9.228;2023-07-22T04:57:03;16.20;93.50
2897;DHT22;1458;49.728;9.228;2023-07-22T04:59:31;16.30;94.10
2897;DHT22;1458;49.728;9.228;2023-07-22T05:01:58;16.30;94.30
2897;DHT22;1458;49.728;9.228;2023-07-22T05:04:26;16.20;94.00
2897;DHT22;1458;49.728;9.228;2023-07-22T05:06:53;16.30;94.00
2897;DHT22;1458;49.728;9.228;2023-07-22T05:09:22;16.60;93.30
2897;DHT22;1458;49.728;9.228;2023-07-22T05:11:49;16.80;93.00
2897;DHT22;1458;49.728;9.228;2023-07-22T05:14:17;16.80;93.00
2897;DHT22;1458;49.728;9.228;2023-07-22T05:16:44;16.90;92.40
2897;DHT22;1458;49.728;9.228;2023-07-22T05:19:12;16.80;93.50
2897;DHT22;1458;49.728;9.228;2023-07-22T05:21:39;16.90;92.10
2897;DHT22;1458;49.728;9.228;2023-07-22T05:24:07;16.90;91.80
2897;DHT22;1458;49.728;9.228;2023-07-22T05:26:35;16.70;92.20
2897;DHT22;1458;49.728;9.228;2023-07-22T05:29:03;16.70;92.30
2897;DHT22;1458;49.728;9.228;2023-07-22T05:31:31;16.80;92.40
2897;DHT22;1458;49.728;9.228;2023-07-22T05:33:58;16.90;92.30
2897;DHT22;1458;49.728;9.228;2023-07-22T05:37:00;16.70;91.90
2897;DHT22;1458;49.728;9.228;2023-07-22T05:39:27;16.60;92.50
2897;DHT22;1458;49.728;9.228;2023-07-22T05:41:56;16.60;93.40
2897;DHT22;1458;49.728;9.228;2023-07-22T05:44:24;16.90;92.70
2897;DHT22;1458;49.728;9.228;2023-07-22T05:46:51;16.80;92.50
2897;DHT22;1458;49.728;9.228;2023-07-22T05:49:19;16.90;92.70
2897;DHT22;1458;49.728;9.228;2023-07-22T05:51:46;16.90;92.50
2897;DHT22;1458;49.728;9.228;2023-07-22T05:54:14;16.90;92.40
2897;DHT22;1458;49.728;9.228;2023-07-22T05:56:41;17.10;92.50
2897;DHT22;1458;49.728;9.228;2023-07-22T05:59:10;17.40;90.90
2897;DHT22;1458;49.728;9.228;2023-07-22T06:01:37;17.60;90.20
2897;DHT22;1458;49.728;9.228;2023-07-22T06:04:05;17.60;89.70
2897;DHT22;1458;49.728;9.228;2023-07-22T06:06:32;17.70;90.00
2897;DHT22;1458;49.728;9.228;2023-07-22T06:09:00;18.00;88.20
2897;DHT22;1458;49.728;9.228;2023-07-22T06:11:27;18.60;86.50
2897;DHT22;1458;49.728;9.228;2023-07-22T06:13:55;19.10;83.60
2897;DHT22;1458;49.728;9.228;2023-07-22T06:16:24;19.40;80.20
2897;DHT22;1458;49.728;9.228;2023-07-22T06:18:51;19.70;79.70
2897;DHT22;1458;49.728;9.228;2023-07-22T06:21:19;19.80;79.90
2897;DHT22;1458;49.728;9.228;2023-07-22T06:23:46;20.20;77.30
2897;DHT22;1458;49.728;9.228;2023-07-22T06:26:14;20.40;76.10
2897;DHT22;1458;49.728;9.228;2023-07-22T06:28:41;20.50;72.50
2897;DHT22;1458;49.728;9.228;2023-07-22T06:31:09;20.30;73.50
2897;DHT22;1458;49.728;9.228;2023-07-22T06:33:38;20.50;75.90
2897;DHT22;1458;49.728;9.228;2023-07-22T06:36:05;20.60;73.20
2897;DHT22;1458;49.728;9.228;2023-07-22T06:38:32;20.80;71.70
2897;DHT22;1458;49.728;9.228;2023-07-22T06:41:00;20.30;70.40
2897;DHT22;1458;49.728;9.228;2023-07-22T06:43:27;20.50;71.70
2897;DHT22;1458;49.728;9.228;2023-07-22T06:45:55;20.40;69.70
2897;DHT22;1458;49.728;9.228;2023-07-22T06:48:22;20.40;70.40
2897;DHT22;1458;49.728;9.228;2023-07-22T06:50:51;20.40;70.50
2897;DHT22;1458;49.728;9.228;2023-07-22T06:53:19;20.60;70.30
2897;DHT22;1458;49.728;9.228;2023-07-22T06:55:50;20.80;68.60
2897;DHT22;1458;49.728;9.228;2023-07-22T06:58:18;20.90;68.20
2897;DHT22;1458;49.728;9.228;2023-07-22T07:00:46;20.60;67.60
2897;DHT22;1458;49.728;9.228;2023-07-22T07:03:13;20.50;68.90
2897;DHT22;1458;49.728;9.228;2023-07-22T07:05:40;20.50;68.10
2897;DHT22;1458;49.728;9.228;2023-07-22T07:08:09;20.70;67.40
2897;DHT22;1458;49.728;9.228;2023-07-22T07:10:37;20.70;67.40
2897;DHT22;1458;49.728;9.228;2023-07-22T07:13:05;20.80;65.40
2897;DHT22;1458;49.728;9.228;2023-07-22T07:15:33;20.90;66.70
2897;DHT22;1458;49.728;9.228;2023-07-22T07:18:00;20.80;65.90
2897;DHT22;1458;49.728;9.228;2023-07-22T07:20:28;20.60;66.10
2897;DHT22;1458;49.728;9.228;2023-07-22T07:22:55;20.40;66.90
2897;DHT22;1458;49.728;9.228;2023-07-22T07:25:24;20.20;66.80
2897;DHT22;1458;49.728;9.228;2023-07-22T07:27:51;20.20;67.60
2897;DHT22;1458;49.728;9.228;2023-07-22T07:30:18;20.20;67.10
2897;DHT22;1458;49.728;9.228;2023-07-22T07:32:46;20.20;68.60
2897;DHT22;1458;49.728;9.228;2023-07-22T07:35:13;20.20;68.80
2897;DHT22;1458;49.728;9.228;2023-07-22T07:37:41;20.30;68.30
2897;DHT22;1458;49.728;9.228;2023-07-22T07:40:09;20.10;68.00
2897;DHT22;1458;49.728;9.228;2023-07-22T07:42:38;19.80;68.30
2897;DHT22;1458;49.728;9.228;2023-07-22T07:45:07;19.80;69.50
2897;DHT22;1458;49.728;9.228;2023-07-22T07:47:35;20.10;69.40
2897;DHT22;1458;49.728;9.228;2023-07-22T07:50:03;20.20;68.90
2897;DHT22;1458;49.728;9.228;2023-07-22T07:52:30;20.20;69.40
2897;DHT22;1458;49.728;9.228;2023-07-22T07:54:58;20.30;68.90
2897;DHT22;1458;49.728;9.228;2023-07-22T07:57:25;20.40;68.30
2897;DHT22;1458;49.728;9.228;2023-07-22T07:59:54;20.60;67.90
2897;DHT22;1458;49.728;9.228;2023-07-22T08:02:21;21.00;68.70
2897;DHT22;1458;49.728;9.228;2023-07-22T08:04:49;21.30;65.80
2897;DHT22;1458;49.728;9.228;2023-07-22T08:07:17;21.80;65.10
2897;DHT22;1458;49.728;9.228;2023-07-22T08:09:46;22.30;63.10
2897;DHT22;1458;49.728;9.228;2023-07-22T08:12:16;22.60;61.80
2897;DHT22;1458;49.728;9.228;2023-07-22T08:14:44;22.40;60.00
2897;DHT22;1458;49.728;9.228;2023-07-22T08:17:13;22.50;59.80
2897;DHT22;1458;49.728;9.228;2023-07-22T08:19:40;22.40;60.40
2897;DHT22;1458;49.728;9.228;2023-07-22T08:22:07;22.40;61.30
2897;DHT22;1458;49.728;9.228;2023-07-22T08:24:35;22.80;59.90
2897;DHT22;1458;49.728;9.228;2023-07-22T08:27:03;23.10;59.00
2897;DHT22;1458;49.728;9.228;2023-07-22T08:29:31;23.40;56.40
2897;DHT22;1458;49.728;9.228;2023-07-22T08:31:59;23.40;52.40
2897;DHT22;1458;49.728;9.228;2023-07-22T08:34:28;23.30;52.30
2897;DHT22;1458;49.728;9.228;2023-07-22T08:36:55;23.10;52.30
2897;DHT22;1458;49.728;9.228;2023-07-22T08:39:23;22.90;52.90
2897;DHT22;1458;49.728;9.228;2023-07-22T08:41:51;22.90;52.20
2897;DHT22;1458;49.728;9.228;2023-07-22T08:44:20;22.90;52.00
2897;DHT22;1458;49.728;9.228;2023-07-22T08:46:50;22.90;51.90
2897;DHT22;1458;49.728;9.228;2023-07-22T08:49:21;23.00;51.90
2897;DHT22;1458;49.728;9.228;2023-07-22T08:51:50;23.00;50.30
2897;DHT22;1458;49.728;9.228;2023-07-22T08:54:18;23.10;48.90
2897;DHT22;1458;49.728;9.228;2023-07-22T08:56:47;23.10;49.30
2897;DHT22;1458;49.728;9.228;2023-07-22T08:59:17;23.30;51.10
2897;DHT22;1458;49.728;9.228;2023-07-22T09:01:45;23.20;48.10
2897;DHT22;1458;49.728;9.228;2023-07-22T09:04:13;23.00;48.80
2897;DHT22;1458;49.728;9.228;2023-07-22T09:06:42;23.20;52.90
2897;DHT22;1458;49.728;9.228;2023-07-22T09:09:10;23.50;50.20
2897;DHT22;1458;49.728;9.228;2023-07-22T09:11:39;23.60;47.80
2897;DHT22;1458;49.728;9.228;2023-07-22T09:14:06;23.60;49.10
2897;DHT22;1458;49.728;9.228;2023-07-22T09:16:35;23.80;47.20
2897;DHT22;1458;49.728;9.228;2023-07-22T09:19:04;24.00;44.40
2897;DHT22;1458;49.728;9.228;2023-07-22T09:21:32;23.90;44.70
2897;DHT22;1458;49.728;9.228;2023-07-22T09:24:01;24.00;43.90
2897;DHT22;1458;49.728;9.228;2023-07-22T09:26:32;24.10;43.50
2897;DHT22;1458;49.728;9.228;2023-07-22T09:29:00;24.20;40.80
2897;DHT22;1458;49.728;9.228;2023-07-22T09:31:27;24.10;41.60
2897;DHT22;1458;49.728;9.228;2023-07-22T09:33:56;23.70;42.70
2897;DHT22;1458;49.728;9.228;2023-07-22T09:36:50;23.90;37.90
2897;DHT22;1458;49.728;9.228;2023-07-22T09:39:18;24.10;41.20
2897;DHT22;1458;49.728;9.228;2023-07-22T09:41:46;24.20;41.40
2897;DHT22;1458;49.728;9.228;2023-07-22T09:44:14;24.40;42.70
2897;DHT22;1458;49.728;9.228;2023-07-22T09:46:41;24.20;39.10
2897;DHT22;1458;49.728;9.228;2023-07-22T09:49:16;24.40;41.40
2897;DHT22;1458;49.728;9.228;2023-07-22T09:51:44;24.50;40.20
2897;DHT22;1458;49.728;9.228;2023-07-22T09:54:11;24.60;36.10
2897;DHT22;1458;49.728;9.228;2023-07-22T09:56:51;25.10;38.20
2897;DHT22;1458;49.728;9.228;2023-07-22T09:59:19;25.60;30.80
2897;DHT22;1458;49.728;9.228;2023-07-22T10:01:49;25.90;32.70
2897;DHT22;1458;49.728;9.228;2023-07-22T10:04:18;25.50;33.60
2897;DHT22;1458;49.728;9.228;2023-07-22T10:06:49;25.20;33.30
2897;DHT22;1458;49.728;9.228;2023-07-22T10:09:18;24.90;32.80
2897;DHT22;1458;49.728;9.228;2023-07-22T10:11:46;24.80;32.70
2897;DHT22;1458;49.728;9.228;2023-07-22T10:14:15;25.00;35.80
2897;DHT22;1458;49.728;9.228;2023-07-22T10:16:43;25.10;32.70
2897;DHT22;1458;49.728;9.228;2023-07-22T10:19:11;25.50;32.10
2897;DHT22;1458;49.728;9.228;2023-07-22T10:21:38;26.20;30.80
2897;DHT22;1458;49.728;9.228;2023-07-22T10:24:07;26.40;27.50
2897;DHT22;1458;49.728;9.228;2023-07-22T10:26:34;26.20;27.40
2897;DHT22;1458;49.728;9.228;2023-07-22T10:29:03;26.30;24.90
2897;DHT22;1458;49.728;9.228;2023-07-22T10:31:32;26.20;24.40
2897;DHT22;1458;49.728;9.228;2023-07-22T10:34:00;26.20;25.30
2897;DHT22;1458;49.728;9.228;2023-07-22T10:36:29;26.70;25.30
2897;DHT22;1458;49.728;9.228;2023-07-22T10:38:59;26.70;23.20
2897;DHT22;1458;49.728;9.228;2023-07-22T10:41:26;26.80;24.80
2897;DHT22;1458;49.728;9.228;2023-07-22T10:43:54;26.80;22.10
2897;DHT22;1458;49.728;9.228;2023-07-22T10:46:33;27.10;22.20
2897;DHT22;1458;49.728;9.228;2023-07-22T10:49:09;27.10;22.30
2897;DHT22;1458;49.728;9.228;2023-07-22T10:51:39;27.00;21.10
2897;DHT22;1458;49.728;9.228;2023-07-22T10:54:13;27.00;21.60
2897;DHT22;1458;49.728;9.228;2023-07-22T10:56:42;26.70;21.70
2897;DHT22;1458;49.728;9.228;2023-07-22T10:59:10;26.80;22.70
2897;DHT22;1458;49.728;9.228;2023-07-22T11:01:41;27.40;22.90
2897;DHT22;1458;49.728;9.228;2023-07-22T11:04:22;28.00;20.00
2897;DHT22;1458;49.728;9.228;2023-07-22T11:06:57;28.20;17.60
2897;DHT22;1458;49.728;9.228;2023-07-22T11:09:37;27.90;20.10
2897;DHT22;1458;49.728;9.228;2023-07-22T11:12:07;27.60;19.20
2897;DHT22;1458;49.728;9.228;2023-07-22T11:14:39;27.50;19.70
2897;DHT22;1458;49.728;9.228;2023-07-22T11:17:13;27.20;18.80
2897;DHT22;1458;49.728;9.228;2023-07-22T11:19:41;26.70;20.20
2897;DHT22;1458;49.728;9.228;2023-07-22T11:22:09;26.20;22.50
2897;DHT22;1458;49.728;9.228;2023-07-22T11:24:37;25.90;22.30
2897;DHT22;1458;49.728;9.228;2023-07-22T11:27:06;25.50;20.80
2897;DHT22;1458;49.728;9.228;2023-07-22T11:29:34;25.30;22.10
2897;DHT22;1458;49.728;9.228;2023-07-22T11:32:03;25.00;23.50
2897;DHT22;1458;49.728;9.228;2023-07-22T11:34:33;24.80;22.60
2897;DHT22;1458;49.728;9.228;2023-07-22T11:37:00;24.70;23.20
2897;DHT22;1458;49.728;9.228;2023-07-22T11:39:28;24.70;23.20
2897;DHT22;1458;49.728;9.228;2023-07-22T11:42:00;24.70;23.20
2897;DHT22;1458;49.728;9.228;2023-07-22T11:44:28;24.90;24.30
2897;DHT22;1458;49.728;9.228;2023-07-22T11:46:58;24.90;23.40
2897;DHT22;1458;49.728;9.228;2023-07-22T11:49:28;25.20;24.20
2897;DHT22;1458;49.728;9.228;2023-07-22T11:51:59;25.50;23.80
2897;DHT22;1458;49.728;9.228;2023-07-22T11:54:28;25.90;21.70
2897;DHT22;1458;49.728;9.228;2023-07-22T11:56:56;26.20;21.50
2897;DHT22;1458;49.728;9.228;2023-07-22T11:59:38;26.30;19.40
2897;DHT22;1458;49.728;9.228;2023-07-22T12:02:06;26.10;19.80
2897;DHT22;1458;49.728;9.228;2023-07-22T12:04:34;26.00;20.70
2897;DHT22;1458;49.728;9.228;2023-07-22T12:07:04;26.00;20.20
2897;DHT22;1458;49.728;9.228;2023-07-22T12:09:31;26.20;19.70
2897;DHT22;1458;49.728;9.228;2023-07-22T12:12:00;26.40;18.60
2897;DHT22;1458;49.728;9.228;2023-07-22T12:14:34;26.20;18.60
2897;DHT22;1458;49.728;9.228;2023-07-22T12:17:02;26.20;18.50
2897;DHT22;1458;49.728;9.228;2023-07-22T12:19:30;26.40;17.70
2897;DHT22;1458;49.728;9.228;2023-07-22T12:21:57;26.40;15.80
2897;DHT22;1458;49.728;9.228;2023-07-22T12:24:27;26.00;16.80
2897;DHT22;1458;49.728;9.228;2023-07-22T12:26:54;25.80;17.70
2897;DHT22;1458;49.728;9.228;2023-07-22T12:29:22;26.00;19.10
2897;DHT22;1458;49.728;9.228;2023-07-22T12:31:49;25.80;18.10
2897;DHT22;1458;49.728;9.228;2023-07-22T12:34:17;25.60;18.90
2897;DHT22;1458;49.728;9.228;2023-07-22T12:36:44;25.80;20.10
2897;DHT22;1458;49.728;9.228;2023-07-22T12:39:12;26.20;19.40
2897;DHT22;1458;49.728;9.228;2023-07-22T12:41:41;26.40;18.60
2897;DHT22;1458;49.728;9.228;2023-07-22T12:44:09;26.80;18.40
2897;DHT22;1458;49.728;9.228;2023-07-22T12:46:36;27.00;17.70
2897;DHT22;1458;49.728;9.228;2023-07-22T12:49:04;27.00;18.30
2897;DHT22;1458;49.728;9.228;2023-07-22T12:51:32;27.10;18.00
2897;DHT22;1458;49.728;9.228;2023-07-22T12:54:02;27.40;18.00
2897;DHT22;1458;49.728;9.228;2023-07-22T12:56:32;27.50;17.20
2897;DHT22;1458;49.728;9.228;2023-07-22T12:59:00;27.30;17.40
2897;DHT22;1458;49.728;9.228;2023-07-22T13:01:28;27.10;18.20
2897;DHT22;1458;49.728;9.228;2023-07-22T13:03:55;27.10;17.10
2897;DHT22;1458;49.728;9.228;2023-07-22T13:06:23;27.00;18.10
2897;DHT22;1458;49.728;9.228;2023-07-22T13:08:50;27.00;19.60
2897;DHT22;1458;49.728;9.228;2023-07-22T13:11:18;27.00;17.70
2897;DHT22;1458;49.728;9.228;2023-07-22T13:13:45;27.20;18.40
2897;DHT22;1458;49.728;9.228;2023-07-22T13:16:14;27.10;19.10
2897;DHT22;1458;49.728;9.228;2023-07-22T13:18:42;27.30;17.80
2897;DHT22;1458;49.728;9.228;2023-07-22T13:21:09;27.10;18.90
2897;DHT22;1458;49.728;9.228;2023-07-22T13:23:37;26.90;19.00
2897;DHT22;1458;49.728;9.228;2023-07-22T13:26:04;26.90;19.00
2897;DHT22;1458;49.728;9.228;2023-07-22T13:28:32;26.80;19.50
2897;DHT22;1458;49.728;9.228;2023-07-22T13:31:00;26.40;20.30
2897;DHT22;1458;49.728;9.228;2023-07-22T13:33:29;26.20;20.50
2897;DHT22;1458;49.728;9.228;2023-07-22T13:35:56;26.10;21.30
2897;DHT22;1458;49.728;9.228;2023-07-22T13:38:24;26.10;22.40
2897;DHT22;1458;49.728;9.228;2023-07-22T13:40:52;25.90;22.60
2897;DHT22;1458;49.728;9.228;2023-07-22T13:43:19;25.80;22.40
2897;DHT22;1458;49.728;9.228;2023-07-22T13:45:47;25.70;23.20
2897;DHT22;1458;49.728;9.228;2023-07-22T13:48:14;25.70;23.90
2897;DHT22;1458;49.728;9.228;2023-07-22T13:50:43;26.00;22.50
2897;DHT22;1458;49.728;9.228;2023-07-22T13:53:11;26.50;23.10
2897;DHT22;1458;49.728;9.228;2023-07-22T13:55:38;26.80;21.20
2897;DHT22;1458;49.728;9.228;2023-07-22T13:58:05;26.70;20.60
2897;DHT22;1458;49.728;9.228;2023-07-22T14:00:34;26.60;21.50
2897;DHT22;1458;49.728;9.228;2023-07-22T14:03:01;26.80;21.00
2897;DHT22;1458;49.728;9.228;2023-07-22T14:05:29;26.80;21.80
2897;DHT22;1458;49.728;9.228;2023-07-22T14:07:58;26.70;21.30
2897;DHT22;1458;49.728;9.228;2023-07-22T14:10:25;26.40;20.60
2897;DHT22;1458;49.728;9.228;2023-07-22T14:12:53;26.30;20.70
2897;DHT22;1458;49.728;9.228;2023-07-22T14:15:20;26.20;21.10
2897;DHT22;1458;49.728;9.228;2023-07-22T14:17:48;26.30;21.40
2897;DHT22;1458;49.728;9.228;2023-07-22T14:20:16;26.60;18.70
2897;DHT22;1458;49.728;9.228;2023-07-22T14:22:43;26.20;19.10
2897;DHT22;1458;49.728;9.228;2023-07-22T14:25:12;26.00;19.40
2897;DHT22;1458;49.728;9.228;2023-07-22T14:27:39;25.90;20.10
2897;DHT22;1458;49.728;9.228;2023-07-22T14:30:08;25.80;19.50
2897;DHT22;1458;49.728;9.228;2023-07-22T14:32:36;25.70;20.20
2897;DHT22;1458;49.728;9.228;2023-07-22T14:35:04;25.60;20.10
2897;DHT22;1458;49.728;9.228;2023-07-22T14:37:32;25.90;19.40
2897;DHT22;1458;49.728;9.228;2023-07-22T14:39:59;26.20;19.40
2897;DHT22;1458;49.728;9.228;2023-07-22T14:42:29;26.30;19.40
2897;DHT22;1458;49.728;9.228;2023-07-22T14:44:56;26.20;18.70
2897;DHT22;1458;49.728;9.228;2023-07-22T14:47:24;25.90;19.30
2897;DHT22;1458;49.728;9.228;2023-07-22T14:49:51;25.80;20.10
2897;DHT22;1458;49.728;9.228;2023-07-22T14:52:19;25.70;21.20
2897;DHT22;1458;49.728;9.228;2023-07-22T14:54:47;25.80;20.30
2897;DHT22;1458;49.728;9.228;2023-07-22T14:57:14;25.80;20.00
2897;DHT22;1458;49.728;9.228;2023-07-22T14:59:44;25.80;20.30
2897;DHT22;1458;49.728;9.228;2023-07-22T15:02:12;26.00;20.80
2897;DHT22;1458;49.728;9.228;2023-07-22T15:04:39;26.20;19.30
2897;DHT22;1458;49.728;9.228;2023-07-22T15:07:07;26.40;18.50
2897;DHT22;1458;49.728;9.228;2023-07-22T15:09:34;26.40;17.70
2897;DHT22;1458;49.728;9.228;2023-07-22T15:12:02;26.30;17.70
2897;DHT22;1458;49.728;9.228;2023-07-22T15:14:29;26.10;18.10
2897;DHT22;1458;49.728;9.228;2023-07-22T15:16:59;26.00;17.70
2897;DHT22;1458;49.728;9.228;2023-07-22T15:19:26;25.80;18.00
2897;DHT22;1458;49.728;9.228;2023-07-22T15:21:54;25.90;18.00
2897;DHT22;1458;49.728;9.228;2023-07-22T15:24:21;26.30;16.60
2897;DHT22;1458;49.728;9.228;2023-07-22T15:26:49;26.60;16.70
2897;DHT22;1458;49.728;9.228;2023-07-22T15:29:16;26.80;15.50
2897;DHT22;1458;49.728;9.228;2023-07-22T15:31:43;26.70;15.00
2897;DHT22;1458;49.728;9.228;2023-07-22T15:34:12;26.50;15.00
2897;DHT22;1458;49.728;9.228;2023-07-22T15:36:40;26.50;15.60
2897;DHT22;1458;49.728;9.228;2023-07-22T15:39:07;26.60;15.50
2897;DHT22;1458;49.728;9.228;2023-07-22T15:41:35;26.40;15.70
2897;DHT22;1458;49.728;9.228;2023-07-22T15:44:03;26.40;16.40
2897;DHT22;1458;49.728;9.228;2023-07-22T15:46:30;26.70;16.30
2897;DHT22;1458;49.728;9.228;2023-07-22T15:48:58;26.80;14.50
2897;DHT22;1458;49.728;9.228;2023-07-22T15:51:27;26.90;13.80
2897;DHT22;1458;49.728;9.228;2023-07-22T15:53:54;26.90;14.50
2897;DHT22;1458;49.728;9.228;2023-07-22T15:56:22;26.50;15.10
2897;DHT22;1458;49.728;9.228;2023-07-22T15:58:49;26.40;15.30
2897;DHT22;1458;49.728;9.228;2023-07-22T16:01:17;26.40;15.90
2897;DHT22;1458;49.728;9.228;2023-07-22T16:03:44;26.40;14.90
2897;DHT22;1458;49.728;9.228;2023-07-22T16:06:12;26.30;15.40
2897;DHT22;1458;49.728;9.228;2023-07-22T16:08:41;26.30;15.80